Exeter, United Kingdom

5:25 AM GMT on January 28, 2015 (GMT +0000)
IDEVONRO2 | Change Station
CLOSE
Current Station
Personal Weather Station
Location: Rockbeare, DEVON
Elevation: 95 ft
Nearby Weather Stations

Elev 95 ft 50.75 °N, 3.39 °W | Updated 7 seconds ago

Mostly Cloudy
Mostly Cloudy
49.8 °F
Feels Like 50 °F
N
1.0
Wind Variable Wind from WSW
Gusts 11.0 mph

Today
High -- | Low -- °F
--% Chance of Precip.
Yesterday
High -- | Low -- °F
Precip. -- in
7:55 AM 4:58 PM
First Quarter, 61% visible
Pressure 29.86 in
Visibility 6.2 miles
Clouds Scattered Clouds 1200 ft
Mostly Cloudy 2000 ft
Windchill 50 °F
Dew Point 47 °F
Humidity 90%
Rainfall 0.00 in
Snow Depth Not available.
UV 0 out of 12
Pollen Not available.
Air Quality Not available.
Flu Activity Not available.
METAR EGDY 280450Z 21015KT 9999 SCT012 BKN020 09/08 Q1011 GRN

More Conditions Fewer Conditions

Pressure 29.86 in
Visibility 6.2 miles
Clouds Scattered Clouds 1200 ft
Mostly Cloudy 2000 ft
Windchill 50 °F
Dew Point 47 °F
Humidity 90%
Rainfall 0.00 in
Snow Depth Not available.
UV 0 out of 12
Pollen Not available.
Air Quality Not available.
Flu Activity Not available.
METAR EGDY 280450Z 21015KT 9999 SCT012 BKN020 09/08 Q1011 GRN

More Conditions Fewer Conditions

10-Day Weather Forecast

Almanac

Astronomy

Jan. 28, 2015 Rise Set
Actual Time
Civil Twilight
Nautical Twilight
Astronomical Twilight
Moon
Length of Visible Light
Length of Day
Tomorrow will be .
, % of the Moon is Illuminated

Today's Extremes

Country Highs Country Lows

Community

WunderPhotos

Upload Photos

1,791,103 photos uploaded!

WunderBlogs® & News

Nearby

Air Quality

  Air Quality AQ Index Pollutant
Not available.

Snow Depth

Station Depth Elevation

Earthquake Activity

City Distance Mag. Time & Date
Minimum magnitude displayed is 2.5.

Coastal Water Temperatures

Place Temperature

Nearby Weather Stations